WetterOnline ( https://www.wetteronline.de )

Wetter aktuell Halbemond

Aktuelles Wetter: Norderney (16m)

6-stündlich | Neueste Meldungen
Ortszeit Temperatur Wetter
Di, 28.05. 2:00 12.2° C leichter Regen
Mo, 27.05. 20:00 15.5° C bedeckt
Mo, 27.05. 14:00 17.4° C wolkig
Mo, 27.05. 8:00 14.9° C wolkig
Mo, 27.05. 2:00 16.1° C bedeckt
So, 26.05. 20:00 19.0° C wolkig
So, 26.05. 14:00 19.0° C leicht bewölkt
So, 26.05. 8:00 15.6° C wolkenlos
Ortszeit Temperatur Wetter
Di, 28.05. 5:30 12.7° C leichter Regen
Di, 28.05. 5:20 12.7° C leichter Regen
Di, 28.05. 5:10 12.6° C leichter Regen
Di, 28.05. 5:00 12.6° C leichter Regen
Di, 28.05. 4:50 12.6° C leichter Regen
Di, 28.05. 4:40 12.7° C leichter Regen
Di, 28.05. 4:30 12.5° C leichter Regen
Di, 28.05. 4:00 12.4° C leichter Regen
Di, 28.05. 3:30 12.4° C leichter Regen
Di, 28.05. 3:00 12.6° C leichter Regen
Di, 28.05. 2:30 12.6° C leichter Regen
Ortszeit Relative Feuchte Sichtweite
Di, 28.05. 2:00 87% 10 km
Mo, 27.05. 20:00 75% 65 km
Mo, 27.05. 14:00 61% 40 km
Mo, 27.05. 8:00 80% 35 km
Mo, 27.05. 2:00 80% >70 km
So, 26.05. 20:00 65% 60 km
So, 26.05. 14:00 77% 12 km
So, 26.05. 8:00 84% 18 km
Ortszeit Relative Feuchte Sichtweite
Di, 28.05. 5:30 74% 30 km
Di, 28.05. 5:20 74% -
Di, 28.05. 5:10 75% -
Di, 28.05. 5:00 75% 30 km
Di, 28.05. 4:50 75% -
Di, 28.05. 4:40 86% -
Di, 28.05. 4:30 81% 45 km
Di, 28.05. 4:00 86% 20 km
Di, 28.05. 3:30 79% 30 km
Di, 28.05. 3:00 80% 21 km
Di, 28.05. 2:30 89% 4.5 km
Ortszeit Niederschlagsmenge Niederschlagsart
Di, 28.05. 2:00 4 l/m2 in 6 Std. Regen
Mo, 27.05. 20:00 0.1 l/m2 in 12 Std. Regen
Mo, 27.05. 14:00 0.0 l/m2 in 6 Std. -
Mo, 27.05. 8:00 0.1 l/m2 in 12 Std. -
Mo, 27.05. 2:00 0.1 l/m2 in 6 Std. Regen
So, 26.05. 20:00 1 l/m2 in 12 Std. Regen
So, 26.05. 14:00 0.0 l/m2 in 6 Std. -
So, 26.05. 8:00 0.1 l/m2 in 12 Std. -
Ortszeit Niederschlagsmenge Niederschlagsart
Di, 28.05. 5:30 0.2 l/m2 in 30 Min -
Di, 28.05. 5:20 keine Meldung -
Di, 28.05. 5:10 keine Meldung -
Di, 28.05. 5:00 0.2 l/m2 in 1 Std. Regen
Di, 28.05. 4:50 keine Meldung -
Di, 28.05. 4:40 keine Meldung -
Di, 28.05. 4:30 0.1 l/m2 in 30 Min -
Di, 28.05. 4:00 1.1 l/m2 in 1 Std. Regen
Di, 28.05. 3:30 0.4 l/m2 in 30 Min -
Di, 28.05. 3:00 1.8 l/m2 in 1 Std. Regen
Di, 28.05. 2:30 0.9 l/m2 in 30 Min -
Ortszeit Stärke Spitze Richtung
km/h Bft. km/h Grad Sektor
Di, 28.05. 2:00 0 0 18 - -
Mo, 27.05. 20:00 13 3 30 330° NW
Mo, 27.05. 14:00 15 3 33 220° SW
Mo, 27.05. 8:00 18 3 40 220° SW
Mo, 27.05. 2:00 18 3 32 220° SW
So, 26.05. 20:00 7 2 40 300° NW
So, 26.05. 14:00 22 4 32 50° NO
So, 26.05. 8:00 9 2 15 160° S
Ortszeit Stärke Spitze Richtung
km/h Bft. km/h Grad Sektor
Di, 28.05. 5:30 13 3 22 260° W
Di, 28.05. 5:20 13 3 - 260° W
Di, 28.05. 5:10 11 2 - 260° W
Di, 28.05. 5:00 20 4 28 270° W
Di, 28.05. 4:50 20 4 - 270° W
Di, 28.05. 4:40 17 3 - 260° W
Di, 28.05. 4:30 14 3 22 270° W
Di, 28.05. 4:00 11 2 19 250° W
Di, 28.05. 3:30 7 2 11 250° W
Di, 28.05. 3:00 9 2 11 320° NW
Di, 28.05. 2:30 4 1 7 20° N
Ortszeit Untergrenze Bedeckung Gattung
total tief tief mittel hoch
Di, 28.05. 2:00 1440 m 8/8 8/8 - - -
Mo, 27.05. 20:00 5400 m 8/8 8/8 - - -
Mo, 27.05. 14:00 1800 m 8/8 1/8 - - -
Mo, 27.05. 8:00 390 m 8/8 1/8 - - -
Mo, 27.05. 2:00 480 m 8/8 8/8 - - -
So, 26.05. 20:00 2100 m 8/8 1/8 - - -
So, 26.05. 14:00 1440 m 7/8 1/8 - - -
So, 26.05. 8:00 - 0/8 0/8 - - -
Ortszeit Bedeckungsgrad in Achtel und Wolkenuntergrenze
Di, 28.05. 5:30 8(1500m)
Di, 28.05. 5:20 8(1500m)
Di, 28.05. 5:10 7
Di, 28.05. 5:00 1(360m) 6(1500m) 8(1800m)
Di, 28.05. 4:50 1(360m) 6(1500m) 8(1800m)
Di, 28.05. 4:40 7
Di, 28.05. 4:30 8(2100m)
Di, 28.05. 4:00 3(390m) 3(900m) 8(1800m)
Di, 28.05. 3:30 7(1800m)
Di, 28.05. 3:00 1(1440m) 8(1800m)
Di, 28.05. 2:30 2(1320m) 7(1500m)
Ortszeit Luftdruck NN (hPa) Tendenz (hPa in 3 Std.)
Di, 28.05. 2:00 1017 + 0,1
Mo, 27.05. 20:00 1016 - 0,3
Mo, 27.05. 14:00 1017 + 0,2
Mo, 27.05. 8:00 1015 + 0,8
Mo, 27.05. 2:00 1014 + 0,4
So, 26.05. 20:00 1013 - 0,5
So, 26.05. 14:00 1016 - 1,4
So, 26.05. 8:00 1018 + 0,3
Ortszeit Luftdruck NN (hPa) Tendenz (hPa in 3 Std.)
Di, 28.05. 5:30 1016 - 0,7
Di, 28.05. 5:20 1016 keine Meldung
Di, 28.05. 5:10 1016 keine Meldung
Di, 28.05. 5:00 1016 - 1,1
Di, 28.05. 4:50 1016 keine Meldung
Di, 28.05. 4:40 1016 keine Meldung
Di, 28.05. 4:30 1016 - 1,3
Di, 28.05. 4:00 1016 - 1,1
Di, 28.05. 3:30 1016 - 0,5
Di, 28.05. 3:00 1016 - 0,6
Di, 28.05. 2:30 1017 - 0,2
Ortszeit Schneehöhe (cm)
Di, 28.05. 2:00 0
Mo, 27.05. 20:00 0
Mo, 27.05. 14:00 0
Mo, 27.05. 8:00 0
Mo, 27.05. 2:00 0
So, 26.05. 20:00 0
So, 26.05. 14:00 0
So, 26.05. 8:00 0
Ortszeit Schneehöhe (cm)
Di, 28.05. 5:30 0
Di, 28.05. 5:20 0
Di, 28.05. 5:10 -
Di, 28.05. 5:00 0
Di, 28.05. 4:50 0
Di, 28.05. 4:40 -
Di, 28.05. 4:30 0
Di, 28.05. 4:00 0
Di, 28.05. 3:30 0
Di, 28.05. 3:00 0
Di, 28.05. 2:30 0
Link zu dieser Seite / Seite empfehlen

Das Wetter in ...